Foothill Ranch, CA

12:35 PM PDT on April 27, 2015 (GMT -0700)
Portola Hills | | Change Station
CLOSE
Current Station
Personal Weather Station
Location: Trabuco Canyon, CA
Elevation: 1260 ft
Nearby Weather Stations
Active Advisory: Wind Advisory

Elev 1260 ft 33.68 °N, 117.63 °W | Updated 1 minute ago

Clear
Clear
82.9 °F
Feels Like 80 °F
N
4.7
Wind Variable Wind from ESE

Today
High -- | Low -- °F
--% Chance of Precip.
Yesterday
High -- | Low -- °F
Precip. -- in
6:06 AM 7:30 PM
Waxing Gibbous, 67% visible
Pressure 29.93 in
Visibility 10.0 miles
Clouds Clear
Heat Index 80 °F
Dew Point 27 °F
Humidity 13%
Rainfall 0.00 in
Snow Depth Not available.
UV 11 out of 12
Pollen 6.60 out of 12
Air Quality Not available.
Flu Activity Sporadic
METAR KSNA 271853Z 05017G22KT 10SM CLR 31/M10 A2993 RMK AO2 PK WND 07026/1843 SLP133 T03061100

More Conditions Fewer Conditions

Pressure 29.93 in
Visibility 10.0 miles
Clouds Clear
Heat Index 80 °F
Dew Point 27 °F
Humidity 13%
Rainfall 0.00 in
Snow Depth Not available.
UV 11 out of 12
Pollen 6.60 out of 12
Air Quality Not available.
Flu Activity Sporadic
METAR KSNA 271853Z 05017G22KT 10SM CLR 31/M10 A2993 RMK AO2 PK WND 07026/1843 SLP133 T03061100

More Conditions Fewer Conditions

10-Day Weather Forecast

Almanac

Astronomy

Apr. 27, 2015 Rise Set
Actual Time
Civil Twilight
Nautical Twilight
Astronomical Twilight
Moon
Length of Visible Light
Length of Day
Tomorrow will be .
, % of the Moon is Illuminated

Today's Extremes

State Highs State Lows

Community

WunderPhotos

Upload Photos

1,817,413 photos uploaded!

WunderBlogs® & News

Nearby

Air Quality

  Air Quality AQ Index Pollutant
Not available.

Snow Depth

Station Depth Elevation

Earthquake Activity

City Distance Mag. Time & Date
Minimum magnitude displayed is 2.5.

Coastal Water Temperatures

Place Temperature

Stations

Nearby Weather Stations

Station Location Temp. Windchill Dew Point Humidity Wind Precip. Elev Updated Type
                   
Wind Advisory
Statement as of 11:43 AM PDT on April 27, 2015

... Wind Advisory now in effect until 2 PM PDT this afternoon...

* winds... areas of northeast winds 20 to 30 mph with gusts to 50
mph. Isolated gusts to 65 mph along the coastal slopes of the
Santa Ana Mountains.

* Timing... winds continuing strong... then diminishing by mid-
afternoon.

* Location... strongest winds below the Cajon Pass and along the
coastal foothills of the Santa Ana Mountains.

* Impacts... winds this strong can make driving difficult...
especially for high profile vehicles.

Precautionary/preparedness actions...

A Wind Advisory means that winds of 35 mph are expected. Winds
this strong can make driving difficult... especially for high
profile vehicles. Use extra caution.



Harrison